Whycocomagh, Canada
Current Conditions -  °F | °C
As of 2:00 PM on Friday 28 Nov 2014 (Local Time) from CYPD Reporting Station
Clear Clear  
Wind Chill: 26°   Ceiling: Unl
Heat Index: 32°   Visibility: 9mi
Dew Point: 25°   Wind: 6mph
Humidity: 75%   Direction: 40°NE
Pressure: 29.84"   Gusts: NA
Location:  45.97°N, 61.12°W
Report Text: CYPD 281800Z AUTO 04005KT 9SM CLR M00/M04 A2984 RMK SLP111
Loading
Personal Weather Stations






























Interactive Weather Map New forecast layout! Learn more

10-Day Weather Forecast

Advertisements
Track Severe Weather on mobile